Time;durP1;ratioP1;P1;durP2;ratioP2;P2;SDS_P1;SDS_P2;PMS_P1;PMS_P2;Temp;Humidity;BMP_temperature;BMP_pressure;BME280_temperature;BME280_humidity;BME280_pressure;Samples;Min_cycle;Max_cycle;Signal;HPM_P1;HPM_P2
2022/09/08 00:01:16;;;;;;;4.80;3.93;;;16.60;94.50;;;;;;5073498;28;20455;-72
2022/09/08 00:03:43;;;;;;;4.63;4.23;;;16.60;95.60;;;;;;5073142;28;20488;-71
2022/09/08 00:06:16;;;;;;;8.27;4.50;;;16.60;94.50;;;;;;5072741;28;20400;-72
2022/09/08 00:08:45;;;;;;;4.67;4.07;;;16.50;94.40;;;;;;5073410;28;20508;-74
2022/09/08 00:11:15;;;;;;;4.23;3.87;;;16.50;94.40;;;;;;5073482;28;20416;-71
2022/09/08 00:13:49;;;;;;;5.10;4.60;;;16.40;94.40;;;;;;5073657;28;20412;-72
2022/09/08 00:16:19;;;;;;;4.00;3.70;;;16.30;94.00;;;;;;5072745;28;20396;-71
2022/09/08 00:18:50;;;;;;;4.63;4.23;;;16.30;94.30;;;;;;5073513;28;20427;-74
2022/09/08 00:21:20;;;;;;;6.03;5.53;;;16.30;94.30;;;;;;5072836;28;20456;-75
2022/09/08 00:23:47;;;;;;;4.77;4.20;;;16.20;94.10;;;;;;5073294;28;20469;-72
2022/09/08 00:26:13;;;;;;;4.00;3.60;;;16.20;94.30;;;;;;5072700;28;20400;-75
2022/09/08 00:28:39;;;;;;;5.83;4.13;;;16.10;94.20;;;;;;5073249;28;20452;-73
2022/09/08 00:31:05;;;;;;;4.27;3.43;;;16.10;93.90;;;;;;5073211;28;20412;-74
2022/09/08 00:33:32;;;;;;;4.17;3.87;;;16.00;94.20;;;;;;5073229;28;20178;-71
2022/09/08 00:35:59;;;;;;;7.43;3.97;;;16.00;94.20;;;;;;5073001;28;20405;-73
2022/09/08 00:38:26;;;;;;;4.03;3.73;;;15.90;93.30;;;;;;5073520;28;20955;-75
2022/09/08 00:40:52;;;;;;;7.20;4.90;;;15.90;94.20;;;;;;5077033;28;20462;-74
2022/09/08 00:43:34;;;;;;;7.47;3.97;;;15.80;94.20;;;;;;5076042;28;20417;-71
2022/09/08 00:46:12;;;;;;;3.87;3.57;;;15.80;94.00;;;;;;5076730;28;20177;-75
2022/09/08 00:48:46;;;;;;;5.67;3.90;;;15.80;94.20;;;;;;5077284;28;20747;-72
2022/09/08 00:51:16;;;;;;;4.10;3.70;;;15.70;94.10;;;;;;5077016;28;20491;-73
2022/09/08 00:53:43;;;;;;;7.37;4.03;;;15.70;94.00;;;;;;5076769;28;20435;-74
2022/09/08 00:56:09;;;;;;;3.83;3.47;;;15.70;94.10;;;;;;5076259;28;20419;-71
2022/09/08 00:58:40;;;;;;;3.50;3.30;;;15.60;94.10;;;;;;5077080;28;20420;-74
2022/09/08 01:01:10;;;;;;;4.03;3.73;;;15.60;94.10;;;;;;5076764;28;20198;-74
2022/09/08 01:03:39;;;;;;;3.40;3.20;;;15.50;93.70;;;;;;5076905;28;20405;-71
2022/09/08 01:15:11;;;;;;;3.60;3.30;;;15.40;93.70;;;;;;5076507;28;20824;-75
2022/09/08 01:17:47;;;;;;;6.37;3.03;;;15.30;90.70;;;;;;5076246;28;20938;-72
2022/09/08 01:20:15;;;;;;;3.13;2.93;;;15.30;91.30;;;;;;5076398;28;20486;-74
2022/09/08 01:23:19;;;;;;;4.13;3.70;;;15.20;90.60;;;;;;5076752;28;20405;-72
2022/09/08 01:25:53;;;;;;;3.93;2.87;;;15.20;91.20;;;;;;5076173;28;20836;-73
2022/09/08 01:28:36;;;;;;;4.30;3.50;;;15.20;93.20;;;;;;5075704;28;20424;-72
2022/09/08 01:31:05;;;;;;;3.70;3.43;;;15.10;92.80;;;;;;5058251;28;20508;-71
2022/09/08 01:33:31;;;;;;;4.87;3.73;;;15.10;90.60;;;;;;5076312;28;20500;-73
2022/09/08 01:36:16;;;;;;;3.33;3.00;;;15.10;92.90;;;;;;5075953;28;20404;-71
2022/09/08 01:38:43;;;;;;;5.73;3.83;;;15.10;92.10;;;;;;5076327;28;20422;-71
2022/09/08 01:41:09;;;;;;;3.67;3.40;;;15.00;93.30;;;;;;5076260;28;20452;-74
2022/09/08 01:43:35;;;;;;;3.70;3.40;;;15.00;92.30;;;;;;5075992;28;20396;-74
2022/09/08 01:46:01;;;;;;;4.30;3.27;;;15.00;93.80;;;;;;5075571;28;20491;-75
2022/09/08 01:48:27;;;;;;;4.20;3.80;;;14.90;93.80;;;;;;5075898;28;20448;-71
2022/09/08 01:50:59;;;;;;;3.63;3.20;;;14.90;94.90;;;;;;5057574;28;20436;-74
2022/09/08 01:53:26;;;;;;;4.43;3.97;;;14.90;93.90;;;;;;5076058;28;20401;-74
2022/09/08 01:55:52;;;;;;;3.77;3.53;;;14.90;93.80;;;;;;5075821;28;20881;-75
2022/09/08 01:58:21;;;;;;;4.30;3.50;;;15.00;93.90;;;;;;5075378;28;20482;-71
2022/09/08 02:00:52;;;;;;;5.80;3.40;;;15.00;95.40;;;;;;5075872;28;20447;-72
2022/09/08 02:03:21;;;;;;;7.90;3.63;;;15.10;95.10;;;;;;5075802;28;20399;-74
2022/09/08 02:06:05;;;;;;;4.33;3.67;;;15.10;96.70;;;;;;5075064;28;20396;-74
2022/09/08 02:08:37;;;;;;;3.10;2.90;;;15.00;99.90;;;;;;5075636;28;20427;-74
2022/09/08 02:11:05;;;;;;;6.57;3.60;;;14.90;99.90;;;;;;5075661;28;20401;-74
2022/09/08 02:13:37;;;;;;;6.13;3.77;;;15.00;99.90;;;;;;5075616;28;20401;-72
2022/09/08 02:16:09;;;;;;;4.40;3.10;;;14.90;99.90;;;;;;5074770;28;20897;-75
2022/09/08 02:18:54;;;;;;;4.43;3.60;;;15.00;99.90;;;;;;5075563;28;21005;-71
2022/09/08 02:21:41;;;;;;;3.40;3.13;;;15.10;99.90;;;;;;5075365;28;20457;-71
2022/09/08 02:24:07;;;;;;;8.30;3.27;;;15.00;99.90;;;;;;5074563;28;20416;-73
2022/09/08 02:26:44;;;;;;;5.10;3.37;;;15.10;99.90;;;;;;5074509;28;20404;-71
2022/09/08 02:29:21;;;;;;;3.63;3.33;;;15.00;99.90;;;;;;5074986;28;20448;-71
2022/09/08 02:31:50;;;;;;;7.70;3.17;;;15.10;99.90;;;;;;5075338;28;20492;-71
2022/09/08 02:34:16;;;;;;;3.33;3.03;;;15.10;99.90;;;;;;5075111;28;20476;-74
2022/09/08 02:40:54;;;;;;;;;;;;;;;;;;;;;
2022/09/08 02:43:21;;;;;;;4.00;3.20;;;15.10;99.90;;;;;;5074691;28;20488;-74
2022/09/08 02:45:48;;;;;;;5.97;4.10;;;15.10;99.90;;;;;;5074864;28;20408;-75
2022/09/08 02:48:14;;;;;;;3.87;3.00;;;15.10;99.90;;;;;;5074304;28;20487;-71
2022/09/08 02:50:41;;;;;;;7.40;3.40;;;15.10;99.90;;;;;;5074788;28;20515;-72
2022/09/08 02:53:17;;;;;;;3.13;2.87;;;15.10;99.90;;;;;;5074981;28;20393;-71
2022/09/08 02:55:43;;;;;;;3.30;3.10;;;15.00;99.90;;;;;;5074834;28;20411;-71
2022/09/08 02:58:21;;;;;;;;;;;;;;;;;;;;;
2022/09/08 03:03:39;;;;;;;3.47;3.27;;;15.00;99.90;;;;;;5072543;28;20412;-71
2022/09/08 03:06:06;;;;;;;7.60;3.90;;;15.00;98.70;;;;;;5073896;28;20408;-75
2022/09/08 03:08:33;;;;;;;6.20;4.23;;;14.90;97.90;;;;;;5074381;28;20426;-71
2022/09/08 03:10:59;;;;;;;3.60;3.13;;;14.90;99.90;;;;;;5074416;28;20416;-74
2022/09/08 03:13:26;;;;;;;3.93;2.90;;;14.90;99.90;;;;;;5074306;28;20409;-71
2022/09/08 03:15:52;;;;;;;3.27;3.03;;;15.00;99.90;;;;;;5074104;28;20436;-75
2022/09/08 03:18:25;;;;;;;2.90;2.70;;;14.90;99.90;;;;;;5073475;28;20424;-71
2022/09/08 03:21:05;;;;;;;3.43;3.20;;;14.90;99.90;;;;;;5073992;28;20460;-71
2022/09/08 03:23:33;;;;;;;3.50;3.20;;;14.90;99.90;;;;;;5074145;28;20539;-71
2022/09/08 03:26:04;;;;;;;3.37;3.07;;;14.90;99.90;;;;;;5073786;28;20396;-75
2022/09/08 03:28:34;;;;;;;3.77;3.40;;;14.90;99.90;;;;;;5073739;28;20439;-71
2022/09/08 03:31:00;;;;;;;3.50;3.00;;;14.90;99.90;;;;;;5073926;28;20496;-71
2022/09/08 03:33:28;;;;;;;5.90;3.40;;;14.90;99.90;;;;;;5074222;28;20479;-71
2022/09/08 03:35:54;;;;;;;9.10;3.80;;;14.90;99.90;;;;;;5073331;28;20455;-75
2022/09/08 03:38:32;;;;;;;3.30;3.00;;;14.90;99.90;;;;;;5073377;28;20416;-74
2022/09/08 03:40:58;;;;;;;5.20;3.80;;;14.90;99.90;;;;;;5073854;28;20448;-74
2022/09/08 03:43:24;;;;;;;3.43;3.23;;;14.90;99.90;;;;;;5073864;28;20857;-74
2022/09/08 03:45:50;;;;;;;4.30;3.47;;;14.90;99.90;;;;;;5073711;28;20397;-71
2022/09/08 03:48:16;;;;;;;6.23;3.80;;;14.90;99.90;;;;;;5073134;28;20435;-72
2022/09/08 03:50:43;;;;;;;3.40;3.20;;;14.90;99.90;;;;;;5073699;28;20221;-74
2022/09/08 03:53:10;;;;;;;3.17;2.87;;;14.90;99.90;;;;;;5073644;28;20403;-74
2022/09/08 03:55:39;;;;;;;4.67;3.83;;;14.90;99.90;;;;;;5073324;28;20404;-71
2022/09/08 03:58:06;;;;;;;3.67;3.37;;;14.90;99.90;;;;;;5072935;28;20479;-71
2022/09/08 04:00:32;;;;;;;3.90;3.53;;;14.90;99.90;;;;;;5055692;28;21026;-72
2022/09/08 04:02:58;;;;;;;3.50;3.27;;;14.90;99.90;;;;;;5055576;28;20503;-74
2022/09/08 04:05:25;;;;;;;3.90;3.03;;;14.90;99.90;;;;;;5073563;28;20401;-74
2022/09/08 04:07:51;;;;;;;3.40;3.10;;;14.90;99.90;;;;;;5072731;28;20474;-74
2022/09/08 04:10:20;;;;;;;5.30;3.83;;;14.90;99.90;;;;;;5073447;28;20392;-72
2022/09/08 04:12:47;;;;;;;6.27;3.93;;;14.90;99.90;;;;;;5072617;28;20411;-71
2022/09/08 04:15:14;;;;;;;7.23;3.23;;;14.90;99.90;;;;;;5073375;28;20413;-74
2022/09/08 04:17:40;;;;;;;4.90;4.17;;;14.90;99.90;;;;;;5072794;28;20396;-71
2022/09/08 04:20:07;;;;;;;3.97;3.67;;;14.90;99.90;;;;;;5055247;28;20408;-74
2022/09/08 04:22:33;;;;;;;3.63;3.33;;;14.90;99.90;;;;;;5073324;28;20408;-74
2022/09/08 04:25:02;;;;;;;4.80;3.43;;;14.90;99.90;;;;;;5073480;28;20411;-71
2022/09/08 04:27:28;;;;;;;3.73;3.43;;;14.90;99.90;;;;;;5072647;28;20400;-74
2022/09/08 04:29:54;;;;;;;7.10;3.73;;;14.90;99.90;;;;;;5054725;28;20428;-74
2022/09/08 04:32:24;;;;;;;4.80;3.37;;;14.90;99.90;;;;;;5073147;28;20254;-71
2022/09/08 04:34:52;;;;;;;3.77;3.27;;;14.90;99.90;;;;;;5073097;28;20159;-74
2022/09/08 04:37:19;;;;;;;9.10;3.70;;;14.90;99.90;;;;;;5072533;28;20428;-74
2022/09/08 04:39:50;;;;;;;3.87;3.53;;;14.90;99.90;;;;;;5073108;28;20492;-71
2022/09/08 04:42:22;;;;;;;3.80;3.50;;;14.80;99.90;;;;;;5073251;28;20509;-74
2022/09/08 04:44:48;;;;;;;4.70;3.47;;;14.80;99.90;;;;;;5073048;28;20440;-74
2022/09/08 04:47:14;;;;;;;4.70;3.77;;;14.80;99.90;;;;;;5072051;28;20392;-71
2022/09/08 04:49:40;;;;;;;3.50;3.23;;;14.80;99.90;;;;;;5072946;28;20427;-71
2022/09/08 04:52:06;;;;;;;6.00;3.50;;;14.80;99.90;;;;;;5073121;28;20397;-74
2022/09/08 04:54:32;;;;;;;4.43;3.87;;;14.80;99.90;;;;;;5073163;28;20401;-74
2022/09/08 04:56:58;;;;;;;3.57;3.27;;;14.80;99.90;;;;;;5072297;28;20911;-72
2022/09/08 04:59:25;;;;;;;3.80;3.50;;;14.80;99.90;;;;;;5072904;28;20216;-74
2022/09/08 05:01:54;;;;;;;7.70;4.00;;;14.80;99.90;;;;;;5071464;28;20538;-72
2022/09/08 05:04:23;;;;;;;3.47;3.17;;;14.80;99.90;;;;;;5072878;28;20389;-71
2022/09/08 05:06:52;;;;;;;5.10;4.50;;;14.90;99.90;;;;;;5072294;28;20389;-74
2022/09/08 05:09:18;;;;;;;5.10;4.50;;;14.90;99.90;;;;;;5072728;28;20428;-71
2022/09/08 05:11:44;;;;;;;4.00;3.70;;;14.90;99.90;;;;;;5072933;28;20412;-74
2022/09/08 05:14:10;;;;;;;4.10;3.70;;;14.90;99.90;;;;;;5072907;28;20666;-71
2022/09/08 05:16:36;;;;;;;4.03;3.30;;;14.90;99.90;;;;;;5072124;28;20932;-71
2022/09/08 05:19:04;;;;;;;3.57;3.30;;;15.00;99.90;;;;;;5054512;28;20428;-72
2022/09/08 05:21:33;;;;;;;6.30;3.70;;;15.00;99.90;;;;;;5072453;28;20456;-71
2022/09/08 05:24:04;;;;;;;4.10;3.70;;;15.00;99.90;;;;;;5072713;28;20924;-71
2022/09/08 05:26:33;;;;;;;4.00;3.70;;;15.00;99.90;;;;;;5074555;28;20882;-75
2022/09/08 05:29:00;;;;;;;5.03;4.00;;;15.00;99.90;;;;;;5076201;28;20444;-74
2022/09/08 05:31:28;;;;;;;3.17;2.87;;;15.00;99.90;;;;;;5076247;28;20397;-74
2022/09/08 05:33:57;;;;;;;4.23;3.83;;;14.90;99.90;;;;;;5076247;28;20404;-74
2022/09/08 05:50:45;;;;;;;7.93;3.80;;;14.90;99.90;;;;;;5033936;28;20487;-72
2022/09/08 05:53:12;;;;;;;4.00;3.63;;;15.00;99.90;;;;;;5017509;28;20410;-72
2022/09/08 05:55:40;;;;;;;4.60;4.20;;;14.90;95.80;;;;;;5033601;28;20401;-77
2022/09/08 05:58:13;;;;;;;6.40;3.40;;;14.90;94.00;;;;;;5050522;28;20429;-77
2022/09/08 06:04:07;;;;;;;3.53;3.17;;;15.10;94.30;;;;;;5075660;28;20396;-74
2022/09/08 06:06:33;;;;;;;7.30;3.70;;;15.20;94.70;;;;;;5075059;28;20400;-71
2022/09/08 06:09:00;;;;;;;5.40;3.63;;;15.20;93.90;;;;;;5075598;28;20420;-74
2022/09/08 06:11:27;;;;;;;10.83;4.40;;;15.30;94.00;;;;;;5075067;28;20400;-71
2022/09/08 06:13:53;;;;;;;3.93;3.57;;;15.30;86.70;;;;;;5075453;28;20483;-74
2022/09/08 06:16:22;;;;;;;4.83;4.00;;;15.40;89.30;;;;;;5056871;28;20495;-75
2022/09/08 06:18:52;;;;;;;3.87;3.47;;;15.50;92.40;;;;;;5057177;28;20425;-74
2022/09/08 06:21:23;;;;;;;4.47;2.97;;;15.70;69.30;;;;;;5075331;28;20448;-74
2022/09/08 06:23:51;;;;;;;2.93;2.73;;;15.80;49.00;;;;;;5075233;28;20405;-71
2022/09/08 06:26:27;;;;;;;3.50;3.10;;;15.90;22.60;;;;;;5056771;28;20405;-71
2022/09/08 06:29:20;;;;;;;9.03;3.33;;;16.00;34.60;;;;;;5075087;28;20527;-72
2022/09/08 06:32:07;;;;;;;4.10;3.20;;;16.00;1.00;;;;;;5074770;28;20412;-73
2022/09/08 06:34:55;;;;;;;3.57;2.70;;;16.10;1.00;;;;;;5057242;28;20412;-71
2022/09/08 06:37:39;;;;;;;4.77;4.27;;;16.30;1.00;;;;;;5074114;28;20399;-71
2022/09/08 06:40:17;;;;;;;3.87;3.20;;;16.30;1.00;;;;;;5057195;28;20455;-71
2022/09/08 06:43:09;;;;;;;3.87;2.60;;;16.30;1.00;;;;;;5057122;28;20404;-71
2022/09/08 06:45:54;;;;;;;7.50;2.83;;;16.50;1.00;;;;;;5074986;28;20396;-70
2022/09/08 06:48:35;;;;;;;3.43;3.03;;;16.60;1.00;;;;;;5056163;28;20431;-71
2022/09/08 06:51:13;;;;;;;4.23;2.70;;;16.60;1.00;;;;;;5056909;28;20496;-71
2022/09/08 06:53:43;;;;;;;3.63;3.20;;;16.70;1.00;;;;;;5057112;28;20491;-71
2022/09/08 06:56:47;;;;;;;5.07;2.87;;;16.70;1.00;;;;;;5074026;28;20491;-72
2022/09/08 06:59:39;;;;;;;3.23;2.93;;;16.70;1.00;;;;;;5074720;28;20499;-73
2022/09/08 07:02:23;;;;;;;6.40;4.00;;;16.80;1.00;;;;;;5056208;28;20988;-71
2022/09/08 07:05:01;;;;;;;4.53;3.13;;;16.90;1.00;;;;;;5074444;28;20392;-72
2022/09/08 07:07:42;;;;;;;4.37;2.97;;;16.90;1.00;;;;;;5073763;28;20404;-74
2022/09/08 07:10:28;;;;;;;3.60;3.20;;;16.90;1.00;;;;;;5056671;28;20416;-72
2022/09/08 07:12:56;;;;;;;4.40;2.97;;;16.90;1.00;;;;;;5074538;28;20408;-73
2022/09/08 07:15:29;;;;;;;9.57;3.40;;;17.00;1.00;;;;;;5056706;28;20474;-72
2022/09/08 07:18:27;;;;;;;6.77;2.83;;;17.10;1.00;;;;;;5056103;28;20478;-69
2022/09/08 07:21:30;;;;;;;3.77;3.20;;;17.10;1.00;;;;;;5066637;28;20490;-71
2022/09/08 07:23:58;;;;;;;11.07;3.20;;;17.10;1.00;;;;;;5074170;28;20490;-72
2022/09/08 07:26:33;;;;;;;5.53;3.37;;;17.20;1.00;;;;;;5073407;28;20397;-74
2022/09/08 07:29:47;;;;;;;;;;;;;;;;;;;;;
2022/09/08 07:32:17;;;;;;;3.97;3.50;;;17.30;1.00;;;;;;5073943;28;20409;-74
2022/09/08 07:35:08;;;;;;;7.20;3.17;;;17.40;1.00;;;;;;5073982;28;20496;-73
2022/09/08 07:37:50;;;;;;;4.27;3.80;;;17.40;1.00;;;;;;5034943;28;20467;-74
2022/09/08 07:40:20;;;;;;;3.30;3.00;;;17.40;1.00;;;;;;5055427;28;20425;-73
2022/09/08 07:42:55;;;;;;;6.87;3.60;;;17.30;1.00;;;;;;5056193;28;20410;-73
2022/09/08 07:45:36;;;;;;;2.93;2.73;;;17.30;1.00;;;;;;5074022;28;20396;-74
2022/09/08 07:48:10;;;;;;;4.03;2.80;;;17.40;1.00;;;;;;5072419;28;20424;-73
2022/09/08 07:50:57;;;;;;;6.90;3.30;;;17.40;1.00;;;;;;5073810;28;20413;-71
2022/09/08 07:53:42;;;;;;;3.90;3.23;;;17.40;1.00;;;;;;5055509;28;20419;-71
2022/09/08 07:56:27;;;;;;;3.23;3.03;;;17.50;1.00;;;;;;5055061;28;20426;-72
2022/09/08 07:59:20;;;;;;;3.67;3.10;;;17.50;1.00;;;;;;5055989;28;20470;-71
2022/09/08 08:02:18;;;;;;;3.97;3.57;;;17.60;1.00;;;;;;5055661;28;20459;-71
2022/09/08 08:08:44;;;;;;;3.20;2.77;;;17.40;1.00;;;;;;5072652;28;20473;-73
2022/09/08 08:11:47;;;;;;;5.40;3.40;;;17.40;1.00;;;;;;5055917;28;20400;-73
2022/09/08 08:14:29;;;;;;;3.73;3.43;;;17.40;1.00;;;;;;5073035;28;20491;-73
2022/09/08 08:17:07;;;;;;;5.57;2.70;;;17.50;1.00;;;;;;5054639;28;20983;-74
2022/09/08 08:19:49;;;;;;;4.83;3.40;;;17.60;1.00;;;;;;5055157;28;20482;-74
2022/09/08 08:22:25;;;;;;;4.47;3.27;;;17.60;1.00;;;;;;5073356;28;20444;-73
2022/09/08 08:25:18;;;;;;;4.27;3.70;;;17.50;1.00;;;;;;5073196;28;20397;-69
2022/09/08 08:28:19;;;;;;;4.90;3.37;;;17.50;1.00;;;;;;5071653;28;20413;-71
2022/09/08 08:30:48;;;;;;;3.90;2.97;;;17.40;1.00;;;;;;5055127;28;20424;-71
2022/09/08 08:37:17;;;;;;;3.40;3.10;;;17.50;1.00;;;;;;5072434;28;20962;-71
2022/09/08 08:39:53;;;;;;;5.90;2.77;;;17.60;1.00;;;;;;5073397;28;20424;-73
2022/09/08 08:46:12;;;;;;;6.70;3.20;;;17.50;1.00;;;;;;5073119;28;20908;-70
2022/09/08 08:49:09;;;;;;;6.00;3.50;;;17.40;1.00;;;;;;5072731;28;20431;-73
2022/09/08 08:52:09;;;;;;;3.40;2.97;;;17.40;1.00;;;;;;5055008;28;20409;-70
2022/09/08 08:55:03;;;;;;;4.80;3.07;;;17.40;1.00;;;;;;5073233;28;20404;-71
2022/09/08 08:57:41;;;;;;;4.20;3.60;;;17.50;1.00;;;;;;5072031;28;20408;-73
2022/09/08 09:00:25;;;;;;;3.80;3.20;;;17.50;1.00;;;;;;5075034;28;20904;-73
2022/09/08 09:03:04;;;;;;;3.10;2.90;;;17.60;1.00;;;;;;5076766;28;20412;-71
2022/09/08 09:06:10;;;;;;;6.07;3.60;;;17.50;1.00;;;;;;5058686;28;20465;-73
2022/09/08 09:09:03;;;;;;;3.63;3.20;;;17.60;1.00;;;;;;5058817;28;20477;-69
2022/09/08 09:11:53;;;;;;;3.83;3.27;;;17.50;1.00;;;;;;5076826;28;20400;-73
2022/09/08 09:14:34;;;;;;;6.40;2.97;;;17.40;1.00;;;;;;5058812;28;20427;-73
2022/09/08 09:17:25;;;;;;;8.00;3.37;;;17.40;1.00;;;;;;5076023;28;20432;-73
2022/09/08 09:20:03;;;;;;;5.73;3.43;;;17.30;1.00;;;;;;5058740;28;20491;-73
2022/09/08 09:23:03;;;;;;;3.53;3.23;;;17.30;1.00;;;;;;5075975;28;20482;-71
2022/09/08 09:25:33;;;;;;;7.00;3.50;;;17.40;1.00;;;;;;5076356;28;20396;-73
2022/09/08 09:28:46;;;;;;;5.00;4.10;;;17.00;1.00;;;;;;5075713;28;20924;-71
2022/09/08 09:31:39;;;;;;;7.87;4.03;;;16.90;1.00;;;;;;4975394;28;20421;-71
2022/09/08 09:34:39;;;;;;;4.27;3.87;;;16.60;1.00;;;;;;4974763;28;20423;-74
2022/09/08 09:37:45;;;;;;;5.23;3.73;;;16.50;1.00;;;;;;5069197;28;20409;-73
2022/09/08 09:43:59;;;;;;;9.13;5.23;;;16.40;1.00;;;;;;5075920;28;20438;-71
2022/09/08 10:24:15;;;;;;;11.43;5.80;;;14.00;99.90;;;;;;4974429;28;20440;-80
2022/09/08 10:27:16;;;;;;;5.63;4.93;;;14.00;99.90;;;;;;4981775;28;20417;-79
2022/09/08 10:30:18;;;;;;;;;;;;;;;;;;;;;
2022/09/08 10:33:36;;;;;;;;;;;;;;;;;;;;;
2022/09/08 10:37:09;;;;;;;5.90;4.53;;;13.90;99.90;;;;;;4973073;28;20431;-78
2022/09/08 10:40:31;;;;;;;5.57;4.90;;;13.90;1.00;;;;;;4956358;28;20468;-78
2022/09/08 10:43:24;;;;;;;6.30;4.43;;;14.00;1.00;;;;;;4973996;28;20436;-78
2022/09/08 10:46:29;;;;;;;10.63;6.50;;;13.90;1.00;;;;;;4973929;28;20403;-79
2022/09/08 10:50:24;;;;;;;;;;;;;;;;;;;;;
2022/09/08 10:52:59;;;;;;;;;;;;;;;;;;;;;
2022/09/08 10:55:53;;;;;;;7.53;6.00;;;14.00;1.00;;;;;;5073946;28;20412;-77
2022/09/08 10:59:09;;;;;;;6.80;5.70;;;14.00;1.00;;;;;;5056399;28;20435;-77
2022/09/08 11:09:26;;;;;;;7.67;5.07;;;14.20;1.00;;;;;;5074516;28;20462;-79
2022/09/08 11:15:53;;;;;;;6.27;5.67;;;14.20;36.00;;;;;;5074361;28;20869;-77
2022/09/08 11:18:44;;;;;;;6.00;4.80;;;14.30;90.30;;;;;;5055857;28;20452;-77
2022/09/08 12:12:59;;;;;;;11.10;5.00;;;14.90;99.90;;;;;;4915872;29;20415;-77
2022/09/08 13:07:22;;;;;;;7.30;6.60;;;15.60;99.90;;;;;;4885223;28;20470;-76
2022/09/08 13:10:13;;;;;;;10.20;7.80;;;15.50;99.90;;;;;;5044596;28;20486;-77
2022/09/08 13:16:39;;;;;;;7.57;6.87;;;15.50;99.90;;;;;;5072248;28;20887;-76
2022/09/08 13:23:09;;;;;;;7.20;6.60;;;15.50;99.90;;;;;;5072784;28;20497;-76
2022/09/08 13:30:07;;;;;;;7.33;6.73;;;15.50;99.90;;;;;;4973402;28;20429;-73
2022/09/08 13:36:24;;;;;;;8.23;7.07;;;15.50;99.90;;;;;;5029445;28;20407;-71
2022/09/08 13:39:20;;;;;;;8.03;7.20;;;15.40;99.90;;;;;;5072271;28;20523;-72
2022/09/08 13:42:06;;;;;;;10.17;8.17;;;15.40;99.90;;;;;;5072488;28;20805;-71
2022/09/08 13:45:15;;;;;;;11.43;7.63;;;15.40;99.90;;;;;;5072642;28;20405;-72
2022/09/08 13:48:01;;;;;;;9.17;7.33;;;15.30;99.90;;;;;;4973639;28;20503;-73
2022/09/08 13:51:03;;;;;;;12.50;7.70;;;15.20;99.90;;;;;;4975368;28;20417;-72
2022/09/08 13:53:51;;;;;;;10.10;7.20;;;15.20;99.90;;;;;;5061691;28;20420;-71
2022/09/08 13:56:33;;;;;;;10.90;7.37;;;15.10;99.90;;;;;;5075426;28;20825;-70
2022/09/08 14:00:00;;;;;;;12.10;8.17;;;15.10;99.90;;;;;;5075874;28;20424;-71
2022/09/08 14:03:15;;;;;;;18.23;7.40;;;15.00;99.90;;;;;;4975075;28;20460;-72
2022/09/08 14:05:43;;;;;;;9.27;7.37;;;15.10;99.90;;;;;;4941271;28;20428;-71
2022/09/08 14:08:09;;;;;;;12.73;8.70;;;15.20;99.90;;;;;;4974320;28;20528;-71
2022/09/08 14:13:50;;;;;;;7.57;6.53;;;15.30;99.90;;;;;;5075058;28;20693;-72
2022/09/08 14:16:35;;;;;;;8.40;6.43;;;15.20;99.90;;;;;;5074671;28;20416;-72
2022/09/08 14:19:44;;;;;;;9.53;8.50;;;15.20;99.90;;;;;;5075412;28;20420;-71
2022/09/08 14:22:58;;;;;;;8.90;7.43;;;15.10;99.90;;;;;;5075498;28;20507;-71
2022/09/08 14:25:26;;;;;;;7.90;6.50;;;15.00;99.90;;;;;;5075481;28;20412;-72
2022/09/08 14:28:18;;;;;;;12.17;6.97;;;15.00;99.90;;;;;;5074721;28;20943;-72
2022/09/08 14:31:10;;;;;;;12.33;8.10;;;14.90;99.90;;;;;;5074928;28;20503;-72
2022/09/08 14:34:38;;;;;;;9.47;6.97;;;14.80;99.90;;;;;;5075250;28;20477;-72
2022/09/08 14:37:10;;;;;;;9.50;6.97;;;14.70;99.90;;;;;;5074530;28;20547;-72
2022/09/08 14:39:55;;;;;;;16.33;7.20;;;14.70;99.90;;;;;;5074925;28;20444;-73
2022/09/08 14:42:23;;;;;;;11.93;10.73;;;14.70;99.90;;;;;;5075331;28;20456;-71
2022/09/08 14:45:19;;;;;;;8.77;6.97;;;14.70;99.90;;;;;;5075264;28;20436;-72
2022/09/08 14:47:54;;;;;;;7.97;6.53;;;14.70;99.90;;;;;;5057056;28;20493;-73
2022/09/08 14:57:20;;;;;;;8.73;7.80;;;14.60;99.90;;;;;;5073767;28;20407;-72
2022/09/08 15:07:25;;;;;;;10.13;7.60;;;14.40;99.90;;;;;;4974455;28;20501;-72
2022/09/08 15:10:12;;;;;;;15.53;8.30;;;14.30;99.90;;;;;;4973974;28;20398;-72
2022/09/08 15:12:47;;;;;;;8.67;7.53;;;14.20;99.90;;;;;;4995050;28;20507;-72
2022/09/08 15:15:49;;;;;;;10.93;7.63;;;14.10;99.90;;;;;;5074583;28;20400;-73
2022/09/08 15:18:25;;;;;;;13.30;7.53;;;14.10;99.90;;;;;;5073665;28;20451;-72
2022/09/08 15:21:48;;;;;;;11.47;7.30;;;14.00;99.90;;;;;;5074066;28;20463;-72
2022/09/08 15:24:47;;;;;;;;;;;;;;;;;;;;;
2022/09/08 15:27:35;;;;;;;10.67;7.47;;;14.00;99.90;;;;;;5072579;28;20450;-72
2022/09/08 15:30:25;;;;;;;10.53;7.40;;;14.00;99.90;;;;;;5074121;28;20392;-72
2022/09/08 15:33:07;;;;;;;9.67;6.90;;;14.10;99.90;;;;;;5072545;28;20458;-72
2022/09/08 15:35:44;;;;;;;9.63;7.23;;;14.10;99.90;;;;;;5073944;28;20762;-72
2022/09/08 15:38:36;;;;;;;11.77;7.00;;;14.10;99.90;;;;;;5072857;28;20956;-72
2022/09/08 15:41:34;;;;;;;9.47;7.50;;;14.00;99.90;;;;;;5073623;28;20475;-71
2022/09/08 15:44:36;;;;;;;11.03;7.10;;;14.00;99.90;;;;;;5060912;28;20452;-73
2022/09/08 15:47:30;;;;;;;9.70;7.53;;;14.00;99.90;;;;;;5030771;28;20416;-73
2022/09/08 15:50:13;;;;;;;15.77;7.37;;;14.00;99.90;;;;;;5072877;28;20458;-72
2022/09/08 15:53:17;;;;;;;9.10;7.43;;;14.10;99.90;;;;;;5073227;28;20396;-72
2022/09/08 15:56:17;;;;;;;8.03;6.63;;;14.10;99.90;;;;;;5073211;28;20495;-72
2022/09/08 15:59:14;;;;;;;7.77;6.17;;;14.10;99.90;;;;;;5073445;28;20455;-73
2022/09/08 16:02:24;;;;;;;6.70;6.07;;;14.00;99.90;;;;;;5073245;28;20448;-72
2022/09/08 16:05:11;;;;;;;8.50;6.33;;;14.00;1.00;;;;;;5072784;28;20463;-72
2022/09/08 16:08:07;;;;;;;;;;;;;;;;;;;;;
2022/09/08 16:10:34;;;;;;;7.50;6.77;;;14.10;1.00;;;;;;5072203;28;20393;-71
2022/09/08 16:13:21;;;;;;;7.13;5.50;;;14.10;1.00;;;;;;5072977;28;20905;-72
2022/09/08 16:15:59;;;;;;;7.40;5.57;;;14.10;1.00;;;;;;5055196;28;20409;-71
2022/09/08 16:18:32;;;;;;;5.90;5.40;;;14.20;1.00;;;;;;5072812;28;20430;-72
2022/09/08 16:20:58;;;;;;;13.83;6.10;;;14.20;1.00;;;;;;5071703;28;20506;-73
2022/09/08 16:24:05;;;;;;;14.83;8.80;;;14.20;1.00;;;;;;5073033;28;20466;-73
2022/09/08 16:26:52;;;;;;;6.80;6.10;;;14.30;1.00;;;;;;5055207;28;20469;-71
2022/09/08 16:29:39;;;;;;;10.00;6.10;;;14.20;1.00;;;;;;5072984;28;20424;-72
2022/09/08 16:32:18;;;;;;;7.33;6.13;;;14.20;1.00;;;;;;5073012;28;20412;-71
2022/09/08 16:38:15;;;;;;;7.43;5.00;;;14.20;1.00;;;;;;5072122;28;20470;-71
2022/09/08 16:44:49;;;;;;;7.77;6.10;;;14.00;1.00;;;;;;5008057;28;20423;-72
2022/09/08 16:47:36;;;;;;;7.67;5.93;;;14.10;1.00;;;;;;5072285;28;20399;-72
2022/09/08 16:50:19;;;;;;;6.80;6.03;;;14.10;1.00;;;;;;5072878;28;20424;-73
2022/09/08 16:53:27;;;;;;;6.63;5.93;;;14.10;1.00;;;;;;5072486;28;20478;-72
2022/09/08 16:56:04;;;;;;;8.43;5.50;;;14.10;1.00;;;;;;5072472;28;20418;-72
2022/09/08 16:58:34;;;;;;;6.53;5.50;;;14.00;1.00;;;;;;5054264;28;20478;-72
2022/09/08 17:01:36;;;;;;;5.20;4.70;;;13.90;1.00;;;;;;5072382;28;20459;-71
2022/09/08 17:04:02;;;;;;;8.77;4.90;;;13.90;1.00;;;;;;5072636;28;20406;-73
2022/09/08 17:07:00;;;;;;;;;;;;;;;;;;;;;
2022/09/08 17:10:04;;;;;;;8.63;4.50;;;13.80;1.00;;;;;;5071925;28;20431;-71
2022/09/08 17:15:52;;;;;;;4.63;4.23;;;13.80;1.00;;;;;;5060365;28;20889;-73
2022/09/08 17:18:55;;;;;;;8.67;4.20;;;13.80;1.00;;;;;;5039234;28;20478;-72
2022/09/08 17:22:12;;;;;;;4.53;4.13;;;13.80;1.00;;;;;;5074691;28;20517;-72
2022/09/08 17:31:30;;;;;;;8.57;4.30;;;13.70;1.00;;;;;;5028956;28;20457;-73
2022/09/08 17:34:21;;;;;;;5.63;4.10;;;13.70;99.90;;;;;;5075436;28;20421;-72
2022/09/08 17:37:17;;;;;;;10.40;4.50;;;13.70;1.00;;;;;;5057613;28;20819;-71
2022/09/08 17:40:51;;;;;;;;;;;;;;;;;;;;;
2022/09/08 17:43:31;;;;;;;3.80;3.50;;;13.70;1.00;;;;;;5070363;28;20429;-71
2022/09/08 17:46:38;;;;;;;6.80;4.20;;;13.70;99.90;;;;;;5075356;28;20492;-71
2022/09/08 17:49:22;;;;;;;4.93;3.93;;;13.70;99.90;;;;;;5059859;28;20444;-72
2022/09/08 17:52:10;;;;;;;4.73;4.37;;;13.70;99.90;;;;;;5075370;28;20470;-71
2022/09/08 17:54:42;;;;;;;4.33;3.97;;;13.70;99.90;;;;;;5075680;28;20424;-73
2022/09/08 17:57:21;;;;;;;4.87;4.47;;;13.80;99.90;;;;;;5074834;28;20443;-71
2022/09/08 17:59:56;;;;;;;8.63;5.00;;;13.80;1.00;;;;;;5057769;28;20443;-70
2022/09/08 18:03:03;;;;;;;5.10;4.70;;;13.90;1.00;;;;;;5057665;28;20462;-71
2022/09/08 18:05:34;;;;;;;8.50;4.07;;;13.90;1.00;;;;;;5075529;28;20401;-70
2022/09/08 18:08:18;;;;;;;7.20;4.40;;;13.90;99.90;;;;;;5074654;28;20405;-70
2022/09/08 18:11:05;;;;;;;5.53;5.00;;;13.90;99.90;;;;;;5074728;28;20393;-71
2022/09/08 18:13:44;;;;;;;4.63;4.23;;;14.00;1.00;;;;;;5075387;28;20396;-71
2022/09/08 18:16:26;;;;;;;6.20;4.03;;;13.90;99.90;;;;;;5073201;28;20450;-71
2022/09/08 18:19:02;;;;;;;5.60;4.33;;;13.90;1.00;;;;;;5075297;28;20424;-71